createdAt,value
2019-05-29T00:00:03.584Z,3.26
2019-05-29T00:01:02.452Z,2.74
2019-05-29T00:02:03.275Z,2.81
2019-05-29T00:03:02.579Z,3.43
2019-05-29T00:04:03.266Z,3.11
2019-05-29T00:05:02.470Z,3.26
2019-05-29T00:06:03.042Z,3.58
2019-05-29T00:07:02.412Z,2.66
2019-05-29T00:08:02.997Z,3.02
2019-05-29T00:09:03.241Z,2.94
2019-05-29T00:10:03.026Z,2.88
2019-05-29T00:11:02.964Z,2.89
2019-05-29T00:12:02.785Z,2.58
2019-05-29T00:13:03.186Z,2.39
2019-05-29T00:14:26.718Z,2.59
2019-05-29T00:15:03.429Z,3.09
2019-05-29T00:16:02.752Z,2.85
2019-05-29T00:17:03.370Z,3.01
2019-05-29T00:18:02.886Z,2.63
2019-05-29T00:19:03.218Z,2.69
2019-05-29T00:20:02.687Z,2.73
2019-05-29T00:21:02.580Z,2.89
2019-05-29T00:22:02.751Z,2.89
2019-05-29T00:23:03.064Z,2.72
2019-05-29T00:24:03.072Z,3.16
2019-05-29T00:25:02.921Z,2.95
2019-05-29T00:26:02.655Z,3.01
2019-05-29T00:27:03.377Z,3.01
2019-05-29T00:28:02.690Z,3.01
2019-05-29T00:29:02.824Z,2.79
2019-05-29T00:30:02.462Z,2.86
2019-05-29T00:31:03.472Z,2.64
2019-05-29T00:32:02.636Z,2.82
2019-05-29T00:33:02.564Z,3.15
2019-05-29T00:34:03.464Z,3.15
2019-05-29T00:35:02.988Z,2.99
2019-05-29T00:36:02.459Z,2.99
2019-05-29T00:37:02.943Z,2.66
2019-05-29T00:38:02.564Z,2.79
2019-05-29T00:39:03.183Z,2.68
2019-05-29T00:40:02.717Z,3.04
2019-05-29T00:41:02.607Z,3.06
2019-05-29T00:42:03.509Z,2.58
2019-05-29T00:43:02.595Z,2.66
2019-05-29T00:44:03.292Z,3.12
2019-05-29T00:45:03.038Z,2.88
2019-05-29T00:46:03.323Z,3.06
2019-05-29T00:47:02.678Z,2.74
2019-05-29T00:48:03.070Z,3.16
2019-05-29T00:49:02.644Z,2.59
2019-05-29T00:50:03.096Z,3.17
2019-05-29T00:51:02.771Z,3.16
2019-05-29T00:52:03.302Z,3.44
2019-05-29T00:53:02.431Z,3.4
2019-05-29T00:54:03.045Z,2.65
2019-05-29T00:55:03.536Z,3.11
2019-05-29T00:56:02.826Z,2.8
2019-05-29T00:57:02.648Z,2.85
2019-05-29T00:58:03.188Z,2.66
2019-05-29T00:59:02.477Z,2.33
2019-05-29T01:00:03.198Z,3.2
2019-05-29T01:01:03.333Z,2.77
2019-05-29T01:02:03.261Z,2.76
2019-05-29T01:03:02.843Z,3.11
2019-05-29T01:04:03.070Z,2.81
2019-05-29T01:05:02.745Z,3.28
2019-05-29T01:06:03.288Z,2.84
2019-05-29T01:07:03.407Z,3.06
2019-05-29T01:08:02.796Z,3.19
2019-05-29T01:09:03.919Z,3.13
2019-05-29T01:10:02.983Z,3.16
2019-05-29T01:11:03.541Z,2.98
2019-05-29T01:12:02.931Z,2.98
2019-05-29T01:13:02.482Z,3.46
2019-05-29T01:14:03.100Z,2.94
2019-05-29T01:15:03.564Z,2.94
2019-05-29T01:16:03.199Z,3.39
2019-05-29T01:17:03.510Z,2.65
2019-05-29T01:18:02.983Z,3.01
2019-05-29T01:19:03.122Z,3.13
2019-05-29T01:20:03.038Z,3.22
2019-05-29T01:21:03.160Z,3.15
2019-05-29T01:22:02.795Z,3.19
2019-05-29T01:23:02.716Z,2.76
2019-05-29T01:24:02.886Z,3.43
2019-05-29T01:25:03.337Z,3.41
2019-05-29T01:26:02.620Z,3.9
2019-05-29T01:27:03.287Z,3.54
2019-05-29T01:28:02.390Z,3.41
2019-05-29T01:29:03.403Z,3.41
2019-05-29T01:30:02.818Z,3.31
2019-05-29T01:31:03.004Z,4.01
2019-05-29T01:32:02.610Z,3.48
2019-05-29T01:33:02.925Z,3.43
2019-05-29T01:34:02.685Z,2.89
2019-05-29T01:35:03.224Z,3.61
2019-05-29T01:36:02.690Z,3.56
2019-05-29T01:37:02.915Z,3.12
2019-05-29T01:38:03.297Z,3.52
2019-05-29T01:39:02.579Z,3.68
2019-05-29T01:40:21.843Z,3.72
2019-05-29T01:41:02.602Z,3.28
2019-05-29T01:42:03.096Z,3.89
2019-05-29T01:43:03.130Z,3.18
2019-05-29T01:44:03.283Z,3.38
2019-05-29T01:45:08.676Z,3.54
2019-05-29T01:46:02.956Z,3.79
2019-05-29T01:47:02.849Z,3.56
2019-05-29T01:48:03.043Z,3.62
2019-05-29T01:49:02.752Z,3.22
2019-05-29T01:50:02.980Z,3.25
2019-05-29T01:51:02.593Z,3.26
2019-05-29T01:52:02.883Z,3.86
2019-05-29T01:53:03.386Z,3.69
2019-05-29T01:54:02.787Z,3.65
2019-05-29T01:55:03.316Z,3.62
2019-05-29T01:56:02.697Z,3.52
2019-05-29T01:57:03.056Z,3.36
2019-05-29T01:58:02.659Z,4.35
2019-05-29T01:59:03.171Z,3.57
2019-05-29T02:00:02.826Z,3.74
2019-05-29T02:01:03.360Z,3.41
2019-05-29T02:02:02.906Z,3.41
2019-05-29T02:03:03.316Z,4.17
2019-05-29T02:04:02.563Z,4.17
2019-05-29T02:05:03.349Z,3.59
2019-05-29T02:06:02.790Z,3.66
2019-05-29T02:07:03.650Z,3.66
2019-05-29T02:08:02.423Z,3.89
2019-05-29T02:09:02.898Z,4.16
2019-05-29T02:10:03.542Z,4.16
2019-05-29T02:11:03.134Z,4.35
2019-05-29T02:12:03.554Z,3.76
2019-05-29T02:13:02.604Z,3.97
2019-05-29T02:14:03.328Z,3.84
2019-05-29T02:15:02.910Z,3.69
2019-05-29T02:16:03.330Z,3.66
2019-05-29T02:17:02.779Z,3.65
2019-05-29T02:18:03.337Z,4
2019-05-29T02:19:03.070Z,4.08
2019-05-29T02:20:03.206Z,4.02
2019-05-29T02:21:02.787Z,4.14
2019-05-29T02:22:03.292Z,4.01
2019-05-29T02:23:02.539Z,3.78
2019-05-29T02:24:03.203Z,4.68
2019-05-29T02:25:02.689Z,4.54
2019-05-29T02:26:03.324Z,4.71
2019-05-29T02:27:02.660Z,4.22
2019-05-29T02:28:03.070Z,4.82
2019-05-29T02:29:02.576Z,4.24
2019-05-29T02:30:03.089Z,4.07
2019-05-29T02:31:02.775Z,4.16
2019-05-29T02:32:03.282Z,4.24
2019-05-29T02:33:02.871Z,4.79
2019-05-29T02:34:07.631Z,4.76
2019-05-29T02:35:02.821Z,4.32
2019-05-29T02:36:03.145Z,5.11
2019-05-29T02:37:02.918Z,4.56
2019-05-29T02:38:03.498Z,4.63
2019-05-29T02:39:03.059Z,4.91
2019-05-29T02:40:03.363Z,5.09
2019-05-29T02:41:02.352Z,4.72
2019-05-29T02:42:03.114Z,5.36
2019-05-29T02:43:02.686Z,5.06
2019-05-29T02:44:03.135Z,4.71
2019-05-29T02:45:02.738Z,4.68
2019-05-29T02:46:03.122Z,4.59
2019-05-29T02:47:02.824Z,4.56
2019-05-29T02:48:03.054Z,5.49
2019-05-29T02:49:02.564Z,5.19
2019-05-29T02:50:02.936Z,4.91
2019-05-29T02:51:02.565Z,4.78
2019-05-29T02:52:02.731Z,4.78
2019-05-29T02:53:03.267Z,5.06
2019-05-29T02:54:02.521Z,4.57
2019-05-29T02:55:03.343Z,4.57
2019-05-29T02:56:02.424Z,4.64
2019-05-29T02:57:03.018Z,4.46
2019-05-29T02:58:03.352Z,4.71
2019-05-29T02:59:02.922Z,4.2
2019-05-29T03:00:03.578Z,5.02
2019-05-29T03:01:02.770Z,4.57
2019-05-29T03:02:02.398Z,4.21
2019-05-29T03:03:02.980Z,5.27
2019-05-29T03:04:03.286Z,4.37
2019-05-29T03:05:02.870Z,4.94
2019-05-29T03:06:03.151Z,4.39
2019-05-29T03:07:02.909Z,4.52
2019-05-29T03:08:03.284Z,5.12
2019-05-29T03:09:02.873Z,5.4
2019-05-29T03:10:03.296Z,4.45
2019-05-29T03:11:03.425Z,4.72
2019-05-29T03:12:03.212Z,4.9
2019-05-29T03:13:03.116Z,4.84
2019-05-29T03:14:03.217Z,5.45
2019-05-29T03:15:02.699Z,5.04
2019-05-29T03:16:12.605Z,5.49
2019-05-29T03:17:03.013Z,5.16
2019-05-29T03:18:02.840Z,4.84
2019-05-29T03:19:03.253Z,5.48
2019-05-29T03:20:02.964Z,5.34
2019-05-29T03:21:03.245Z,4.76
2019-05-29T03:22:02.685Z,5.45
2019-05-29T03:23:03.149Z,5.09
2019-05-29T03:24:03.049Z,5.2
2019-05-29T03:25:02.899Z,4.88
2019-05-29T03:26:03.070Z,5.44
2019-05-29T03:27:02.832Z,4.69
2019-05-29T03:28:03.177Z,4.81
2019-05-29T03:29:02.722Z,4.66
2019-05-29T03:30:03.052Z,5.33
2019-05-29T03:31:02.930Z,5.13
2019-05-29T03:32:02.933Z,5.08
2019-05-29T03:33:02.764Z,5.34
2019-05-29T03:34:03.194Z,5.33
2019-05-29T03:35:02.695Z,4.99
2019-05-29T03:36:03.033Z,5.66
2019-05-29T03:37:02.395Z,5.33
2019-05-29T03:38:02.856Z,5.32
2019-05-29T03:39:02.654Z,5.86
2019-05-29T03:40:03.003Z,5.05
2019-05-29T03:41:03.115Z,5.38
2019-05-29T03:42:03.077Z,5.39
2019-05-29T03:43:02.537Z,5.52
2019-05-29T03:44:02.666Z,5.52
2019-05-29T03:45:02.523Z,5.45
2019-05-29T03:46:02.549Z,5.49
2019-05-29T03:47:02.519Z,5.49
2019-05-29T03:48:02.769Z,5.78
2019-05-29T03:49:03.041Z,5.44
2019-05-29T03:50:02.718Z,5.44
2019-05-29T03:51:02.929Z,5.2
2019-05-29T03:52:02.630Z,5.34
2019-05-29T03:53:02.962Z,6.29
2019-05-29T03:54:02.637Z,5.55
2019-05-29T03:55:03.432Z,6.86
2019-05-29T03:56:03.277Z,5.51
2019-05-29T03:57:03.105Z,5.25
2019-05-29T03:58:03.425Z,5.83
2019-05-29T03:59:02.896Z,5.31
2019-05-29T04:00:02.661Z,5.84
2019-05-29T04:01:02.792Z,5.54
2019-05-29T04:02:03.568Z,5.86
2019-05-29T04:03:02.646Z,6.22
2019-05-29T04:04:02.576Z,6.19
2019-05-29T04:05:02.841Z,5.85
2019-05-29T04:06:02.963Z,5.52
2019-05-29T04:07:02.621Z,5.95
2019-05-29T04:08:02.920Z,6.3
2019-05-29T04:09:02.560Z,6.22
2019-05-29T04:10:03.119Z,5.98
2019-05-29T04:11:02.714Z,6.36
2019-05-29T04:12:02.965Z,6.01
2019-05-29T04:13:02.653Z,5.85
2019-05-29T04:14:03.035Z,6.41
2019-05-29T04:15:03.346Z,6.41
2019-05-29T04:16:02.644Z,6.43
2019-05-29T04:17:02.691Z,6.15
2019-05-29T04:18:02.924Z,5.59
2019-05-29T04:19:03.294Z,5.68
2019-05-29T04:20:03.302Z,5.68
2019-05-29T04:21:03.466Z,5.79
2019-05-29T04:22:03.284Z,4.97
2019-05-29T04:23:02.645Z,6.14
2019-05-29T04:24:02.752Z,5.88
2019-05-29T04:25:03.289Z,5.69
2019-05-29T04:26:02.530Z,5.95
2019-05-29T04:27:02.765Z,5.64
2019-05-29T04:28:03.232Z,6.12
2019-05-29T04:29:02.948Z,5.86
2019-05-29T04:30:03.398Z,5.84
2019-05-29T04:31:03.055Z,5.99
2019-05-29T04:32:03.116Z,5.91
2019-05-29T04:33:02.690Z,6.54
2019-05-29T04:34:02.979Z,5.61
2019-05-29T04:35:02.716Z,5.61
2019-05-29T04:36:03.055Z,6.62
2019-05-29T04:37:02.444Z,6.28
2019-05-29T04:38:03.260Z,6.28
2019-05-29T04:39:02.564Z,6.08
2019-05-29T04:40:03.174Z,6.38
2019-05-29T04:41:02.363Z,5.84
2019-05-29T04:42:02.870Z,5.84
2019-05-29T04:43:03.501Z,5.99
2019-05-29T04:44:02.735Z,6.18
2019-05-29T04:45:02.438Z,5.81
2019-05-29T04:46:03.438Z,5.93
2019-05-29T04:47:12.080Z,5.47
2019-05-29T04:48:02.604Z,5.52
2019-05-29T04:49:02.993Z,6.56
2019-05-29T04:50:02.744Z,5.81
2019-05-29T04:51:02.966Z,5.59
2019-05-29T04:52:03.396Z,6.77
2019-05-29T04:53:02.598Z,6.25
2019-05-29T04:54:03.109Z,6.14
2019-05-29T04:55:03.061Z,6.01
2019-05-29T04:56:03.332Z,6.14
2019-05-29T04:57:03.115Z,6.11
2019-05-29T04:58:03.234Z,6.65
2019-05-29T04:59:02.871Z,6.37
2019-05-29T05:00:03.489Z,5.8
2019-05-29T05:01:02.898Z,6.72
2019-05-29T05:02:03.247Z,5.36
2019-05-29T05:03:03.297Z,6.15
2019-05-29T05:04:02.488Z,6.16
2019-05-29T05:05:03.061Z,5.84
2019-05-29T05:06:03.020Z,5.33
2019-05-29T05:07:02.744Z,6.38
2019-05-29T05:08:03.481Z,6.46
2019-05-29T05:09:02.734Z,6.68
2019-05-29T05:10:02.966Z,6
2019-05-29T05:11:02.675Z,6.95
2019-05-29T05:12:03.345Z,6.58
2019-05-29T05:13:02.619Z,6.92
2019-05-29T05:14:03.054Z,6.24
2019-05-29T05:15:03.338Z,7.05
2019-05-29T05:16:03.023Z,6
2019-05-29T05:17:03.254Z,6
2019-05-29T05:18:02.653Z,6.58
2019-05-29T05:19:02.511Z,6.19
2019-05-29T05:20:02.688Z,6.16
2019-05-29T05:21:02.558Z,6.96
2019-05-29T05:22:02.739Z,5.98
2019-05-29T05:23:03.283Z,5.98
2019-05-29T05:24:02.796Z,6.54
2019-05-29T05:25:03.052Z,5.72
2019-05-29T05:26:02.636Z,5.72
2019-05-29T05:27:03.112Z,5.65
2019-05-29T05:28:02.743Z,5.65
2019-05-29T05:29:02.986Z,7.04
2019-05-29T05:30:02.795Z,7.18
2019-05-29T05:31:02.886Z,6.58
2019-05-29T05:32:02.557Z,6.76
2019-05-29T05:33:03.028Z,6.27
2019-05-29T05:34:02.743Z,6.7
2019-05-29T05:35:03.039Z,6.62
2019-05-29T05:36:02.401Z,6.72
2019-05-29T05:37:02.673Z,6.65
2019-05-29T05:38:02.570Z,6.46
2019-05-29T05:39:02.978Z,6.82
2019-05-29T05:40:03.136Z,6.15
2019-05-29T05:41:02.705Z,5.81
2019-05-29T05:42:02.926Z,6.22
2019-05-29T05:43:03.215Z,6.66
2019-05-29T05:44:03.298Z,6.38
2019-05-29T05:45:03.311Z,6.29
2019-05-29T05:46:02.521Z,6.45
2019-05-29T05:47:02.644Z,6.33
2019-05-29T05:48:02.733Z,5.99
2019-05-29T05:49:03.013Z,5.89
2019-05-29T05:50:02.595Z,6.63
2019-05-29T05:51:02.827Z,6.36
2019-05-29T05:52:02.571Z,6.79
2019-05-29T05:53:03.584Z,6.59
2019-05-29T05:54:02.987Z,6.86
2019-05-29T05:55:03.054Z,6.3
2019-05-29T05:56:03.158Z,6.51
2019-05-29T05:57:03.201Z,7.03
2019-05-29T05:58:02.958Z,6.2
2019-05-29T05:59:03.108Z,6.43
2019-05-29T06:00:03.508Z,6.25
2019-05-29T06:01:02.925Z,6.54
2019-05-29T06:02:02.414Z,6.72
2019-05-29T06:03:02.685Z,7.16
2019-05-29T06:04:03.247Z,7.08
2019-05-29T06:05:02.868Z,6.36
2019-05-29T06:06:03.522Z,6.57
2019-05-29T06:07:02.921Z,5.93
2019-05-29T06:08:02.685Z,6.52
2019-05-29T06:09:02.913Z,6.58
2019-05-29T06:10:03.402Z,6.69
2019-05-29T06:11:02.452Z,7.22
2019-05-29T06:12:03.195Z,7.19
2019-05-29T06:13:02.759Z,7.45
2019-05-29T06:14:03.124Z,6.95
2019-05-29T06:15:02.567Z,6.95
2019-05-29T06:16:03.205Z,7.25
2019-05-29T06:17:02.420Z,7.06
2019-05-29T06:18:21.742Z,7.06
2019-05-29T06:19:02.734Z,6.8
2019-05-29T06:20:03.116Z,6.86
2019-05-29T06:21:03.466Z,7.04
2019-05-29T06:22:03.128Z,7.17
2019-05-29T06:23:02.690Z,7.18
2019-05-29T06:24:02.947Z,7.58
2019-05-29T06:25:03.500Z,6.79
2019-05-29T06:26:02.691Z,6.52
2019-05-29T06:27:03.037Z,7.81
2019-05-29T06:28:02.711Z,6.94
2019-05-29T06:29:03.165Z,7.71
2019-05-29T06:30:03.665Z,6.88
2019-05-29T06:31:03.376Z,6.93
2019-05-29T06:32:03.418Z,7.11
2019-05-29T06:33:02.995Z,6.74
2019-05-29T06:34:03.270Z,6.72
2019-05-29T06:35:02.790Z,7.18
2019-05-29T06:36:03.133Z,6.91
2019-05-29T06:37:03.203Z,7.52
2019-05-29T06:38:03.152Z,7.79
2019-05-29T06:39:02.819Z,7.41
2019-05-29T06:40:03.280Z,7
2019-05-29T06:41:02.648Z,7.96
2019-05-29T06:42:02.879Z,7.34
2019-05-29T06:43:03.240Z,7.75
2019-05-29T06:44:02.805Z,7.28
2019-05-29T06:45:03.894Z,7.49
2019-05-29T06:46:02.646Z,7.57
2019-05-29T06:47:03.353Z,7.38
2019-05-29T06:48:02.989Z,7.64
2019-05-29T06:49:02.590Z,7.42
2019-05-29T06:50:03.353Z,6.76
2019-05-29T06:51:03.240Z,7.14
2019-05-29T06:52:02.667Z,7.65
2019-05-29T06:53:02.886Z,7.03
2019-05-29T06:54:02.872Z,7.09
2019-05-29T06:55:02.968Z,7.67
2019-05-29T06:56:03.803Z,7.65
2019-05-29T06:57:03.483Z,7.14
2019-05-29T06:58:03.359Z,7.37
2019-05-29T06:59:02.965Z,7.61
2019-05-29T07:00:02.726Z,7.39
2019-05-29T07:01:02.499Z,7.65
2019-05-29T07:02:02.910Z,7.38
2019-05-29T07:03:03.485Z,7.38
2019-05-29T07:04:12.640Z,7.29
2019-05-29T07:05:03.579Z,7.58
2019-05-29T07:06:02.903Z,7.58
2019-05-29T07:07:03.292Z,7.36
2019-05-29T07:08:24.067Z,7.64
2019-05-29T07:09:03.225Z,7.64
2019-05-29T07:10:02.866Z,7.92
2019-05-29T07:11:02.897Z,8.11
2019-05-29T07:12:03.485Z,7.72
2019-05-29T07:13:03.247Z,7.11
2019-05-29T07:14:02.652Z,7.91
2019-05-29T07:15:03.115Z,7.85
2019-05-29T07:16:03.425Z,8.07
2019-05-29T07:17:02.814Z,7.61
2019-05-29T07:18:03.398Z,7.08
2019-05-29T07:19:34.317Z,7.62
2019-05-29T07:20:04.336Z,6.93
2019-05-29T07:21:03.079Z,7.4
2019-05-29T07:22:02.946Z,6.97
2019-05-29T07:23:02.569Z,7.77
2019-05-29T07:24:02.878Z,7.37
2019-05-29T07:25:02.641Z,7.15
2019-05-29T07:26:03.136Z,6.7
2019-05-29T07:27:02.931Z,7.29
2019-05-29T07:28:03.195Z,7.38
2019-05-29T07:29:08.770Z,8.24
2019-05-29T07:30:03.254Z,7.12
2019-05-29T07:31:04.102Z,7.38
2019-05-29T07:32:03.377Z,7.37
2019-05-29T07:33:02.579Z,8.06
2019-05-29T07:34:02.933Z,7.94
2019-05-29T07:35:04.713Z,8.04
2019-05-29T07:36:03.404Z,8.4
2019-05-29T07:37:02.779Z,7.4
2019-05-29T07:38:03.575Z,7.92
2019-05-29T07:39:03.961Z,7.57
2019-05-29T07:40:02.632Z,7.87
2019-05-29T07:41:02.603Z,7.81
2019-05-29T07:42:02.658Z,7.74
2019-05-29T07:43:03.468Z,7.68
2019-05-29T07:44:02.898Z,7.76
2019-05-29T07:45:03.613Z,7.85
2019-05-29T07:46:02.872Z,8.31
2019-05-29T07:47:02.691Z,7.07
2019-05-29T07:48:03.378Z,8.21
2019-05-29T07:49:03.218Z,7.64
2019-05-29T07:50:02.990Z,8.52
2019-05-29T07:51:07.421Z,7.99
2019-05-29T07:52:02.915Z,7.17
2019-05-29T07:53:03.476Z,8.21
2019-05-29T07:54:02.582Z,8.21
2019-05-29T07:55:02.982Z,8.37
2019-05-29T07:56:03.480Z,7.81
2019-05-29T07:57:02.863Z,8.44
2019-05-29T07:58:02.766Z,8.44
2019-05-29T07:59:03.902Z,7.52
2019-05-29T08:00:02.606Z,7.69
2019-05-29T08:01:13.917Z,7.69
2019-05-29T08:02:02.937Z,7.46
2019-05-29T08:03:03.611Z,7.25
2019-05-29T08:04:03.086Z,7.25
2019-05-29T08:05:03.507Z,6.39
2019-05-29T08:06:03.269Z,6.92
2019-05-29T08:07:02.836Z,7.02
2019-05-29T08:08:02.960Z,7.74
2019-05-29T08:09:02.893Z,7.69
2019-05-29T08:10:02.939Z,7.14
2019-05-29T08:11:02.671Z,6.64
2019-05-29T08:12:03.303Z,8.03
2019-05-29T08:13:03.036Z,6.31
2019-05-29T08:14:03.060Z,7.35
2019-05-29T08:15:02.621Z,6.13
2019-05-29T08:16:03.605Z,6.41
2019-05-29T08:17:03.071Z,6.13
2019-05-29T08:18:03.461Z,5.45
2019-05-29T08:19:02.469Z,5.99
2019-05-29T08:20:08.067Z,6.31
2019-05-29T08:21:02.621Z,6.4
2019-05-29T08:22:03.256Z,6.12
2019-05-29T08:23:02.761Z,7.07
2019-05-29T08:24:02.568Z,6.89
2019-05-29T08:25:02.647Z,7.48
2019-05-29T08:26:03.158Z,7.29
2019-05-29T08:27:03.405Z,7.75
2019-05-29T08:28:02.938Z,7.24
2019-05-29T08:29:02.692Z,7.44
2019-05-29T08:30:03.626Z,6.88
2019-05-29T08:31:03.419Z,7.32
2019-05-29T08:32:03.164Z,6.68
2019-05-29T08:33:03.133Z,6.32
2019-05-29T08:34:02.935Z,5.84
2019-05-29T08:35:03.605Z,5.94
2019-05-29T08:36:02.905Z,5.98
2019-05-29T08:37:07.606Z,5.85
2019-05-29T08:38:03.051Z,6.43
2019-05-29T08:39:03.213Z,5.64
2019-05-29T08:40:03.156Z,6.67
2019-05-29T08:41:06.074Z,6.11
2019-05-29T08:42:23.472Z,6.56
2019-05-29T08:43:03.484Z,6.01
2019-05-29T08:44:02.901Z,6.26
2019-05-29T08:45:02.675Z,7.32
2019-05-29T08:46:03.079Z,7.32
2019-05-29T08:47:11.097Z,7.26
2019-05-29T08:48:02.790Z,6.64
2019-05-29T08:49:03.402Z,6.64
2019-05-29T08:50:19.083Z,6.28
2019-05-29T08:51:03.385Z,7.66
2019-05-29T08:52:12.632Z,6.52
2019-05-29T08:53:02.797Z,6.52
2019-05-29T08:54:02.836Z,6.14
2019-05-29T08:55:03.032Z,7.85
2019-05-29T08:56:02.632Z,7.12
2019-05-29T08:57:02.876Z,6.36
2019-05-29T08:58:03.296Z,6.01
2019-05-29T08:59:02.778Z,6.17
2019-05-29T09:00:03.708Z,7.4
2019-05-29T09:01:02.817Z,6.04
2019-05-29T09:02:03.541Z,6.55
2019-05-29T09:03:03.048Z,6.09
2019-05-29T09:04:03.014Z,6.47
2019-05-29T09:05:03.359Z,5.94
2019-05-29T09:06:10.407Z,5.89
2019-05-29T09:07:02.664Z,5.5
2019-05-29T09:08:02.901Z,6.22
2019-05-29T09:09:02.827Z,5.89
2019-05-29T09:10:03.072Z,5.88
2019-05-29T09:11:03.651Z,6.25
2019-05-29T09:12:02.971Z,5.76
2019-05-29T09:13:05.471Z,6.64
2019-05-29T09:14:03.009Z,6.62
2019-05-29T09:15:03.608Z,6.78
2019-05-29T09:16:02.979Z,6.68
2019-05-29T09:17:03.682Z,6.33
2019-05-29T09:18:02.696Z,6.37
2019-05-29T09:19:03.258Z,7.43
2019-05-29T09:20:03.173Z,6.78
2019-05-29T09:21:04.603Z,7.15
2019-05-29T09:22:02.775Z,7.05
2019-05-29T09:23:02.688Z,6.65
2019-05-29T09:24:02.924Z,7.01
2019-05-29T09:25:02.456Z,7.66
2019-05-29T09:26:19.629Z,6.58
2019-05-29T09:27:02.231Z,6.25
2019-05-29T09:28:03.230Z,6.41
2019-05-29T09:29:02.536Z,6.34
2019-05-29T09:30:03.237Z,6.43
2019-05-29T09:31:02.471Z,6.83
2019-05-29T09:32:03.468Z,6.18
2019-05-29T09:33:02.574Z,6.49
2019-05-29T09:34:03.337Z,6.39
2019-05-29T09:35:03.050Z,6.51
2019-05-29T09:36:03.134Z,6.44
2019-05-29T09:37:02.827Z,6.24
2019-05-29T09:38:03.215Z,6.24
2019-05-29T09:39:02.604Z,6.24
2019-05-29T09:40:02.987Z,5.99
2019-05-29T09:41:02.746Z,5.99
2019-05-29T09:42:03.304Z,6.08
2019-05-29T09:43:02.770Z,5.8
2019-05-29T09:44:03.165Z,6.44
2019-05-29T09:45:03.200Z,6.18
2019-05-29T09:46:03.364Z,6.16
2019-05-29T09:47:02.559Z,6.05
2019-05-29T09:48:03.116Z,6.7
2019-05-29T09:49:02.693Z,6.31
2019-05-29T09:50:03.296Z,6.8
2019-05-29T09:51:21.691Z,6.25
2019-05-29T09:52:04.275Z,6.54
2019-05-29T09:53:04.295Z,6.48
2019-05-29T09:54:03.704Z,6.16
2019-05-29T09:55:02.721Z,5.74
2019-05-29T09:56:03.530Z,6.14
2019-05-29T09:57:03.250Z,6.55
2019-05-29T09:58:02.922Z,6.58
2019-05-29T09:59:04.045Z,6.98
2019-05-29T10:00:04.363Z,6.11
2019-05-29T10:01:23.316Z,6.34
2019-05-29T10:02:08.748Z,6.45
2019-05-29T10:03:03.962Z,6.19
2019-05-29T10:04:06.374Z,6.5
2019-05-29T10:05:04.254Z,6.38
2019-05-29T10:06:04.469Z,6.23
2019-05-29T10:07:05.088Z,5.14
2019-05-29T10:08:04.472Z,5.36
2019-05-29T10:09:03.863Z,5.63
2019-05-29T10:10:05.184Z,5.88
2019-05-29T10:11:10.807Z,6.69
2019-05-29T10:12:06.892Z,6.72
2019-05-29T10:13:04.553Z,6.56
2019-05-29T10:14:05.123Z,7.54
2019-05-29T10:15:04.509Z,7.48
2019-05-29T10:16:02.999Z,7.68
2019-05-29T10:17:12.355Z,7.68
2019-05-29T10:18:18.297Z,7.86
2019-05-29T10:19:04.618Z,7.8
2019-05-29T10:20:03.408Z,8.13
2019-05-29T10:21:03.299Z,7.44
2019-05-29T10:22:05.593Z,7.11
2019-05-29T10:23:03.311Z,7.89
2019-05-29T10:24:04.343Z,7.93
2019-05-29T10:25:03.751Z,8.78
2019-05-29T10:26:05.062Z,8.78
2019-05-29T10:27:06.216Z,8.61
2019-05-29T10:28:06.214Z,8
2019-05-29T10:29:09.829Z,8
2019-05-29T10:30:03.624Z,6.86
2019-05-29T10:31:04.948Z,7.51
2019-05-29T10:32:03.223Z,7.64
2019-05-29T10:33:02.820Z,8.52
2019-05-29T10:34:03.156Z,8.01
2019-05-29T10:35:02.630Z,8.97
2019-05-29T10:36:04.442Z,8.82
2019-05-29T10:37:02.555Z,8.28
2019-05-29T10:38:03.285Z,8.67
2019-05-29T10:39:03.071Z,8.34
2019-05-29T10:40:02.746Z,8.48
2019-05-29T10:41:07.477Z,9.14
2019-05-29T10:42:02.744Z,9.63
2019-05-29T10:43:02.840Z,8.92
2019-05-29T10:44:03.281Z,8.22
2019-05-29T10:45:03.565Z,9
2019-05-29T10:46:03.237Z,9.29
2019-05-29T10:47:03.234Z,9.31
2019-05-29T10:48:03.036Z,9.44
2019-05-29T10:49:05.015Z,9.41
2019-05-29T10:50:03.404Z,8.25
2019-05-29T10:51:02.655Z,8.18
2019-05-29T10:52:17.304Z,8.12
2019-05-29T10:53:03.441Z,8.69
2019-05-29T10:54:03.498Z,7.52
2019-05-29T10:55:02.847Z,3.29
2019-05-29T10:56:03.063Z,3.06
2019-05-29T10:57:03.437Z,2.62
2019-05-29T10:58:03.249Z,2.75
2019-05-29T10:59:02.405Z,2.36
2019-05-29T11:00:03.246Z,2.24
2019-05-29T11:01:03.310Z,1.98
2019-05-29T11:02:03.289Z,1.8
2019-05-29T11:03:02.993Z,1.36
2019-05-29T11:04:02.935Z,1.41
2019-05-29T11:05:03.494Z,1.63
2019-05-29T11:06:03.233Z,1.24
2019-05-29T11:07:02.787Z,1.34
2019-05-29T11:08:02.954Z,1.3
2019-05-29T11:09:03.312Z,1.3
2019-05-29T11:10:03.406Z,1.13
2019-05-29T11:11:02.836Z,1.49
2019-05-29T11:12:03.076Z,1.52
2019-05-29T11:13:02.730Z,1.69
2019-05-29T11:14:02.499Z,1.39
2019-05-29T11:15:21.626Z,1.42
2019-05-29T11:16:02.414Z,1.85
2019-05-29T11:17:03.167Z,1.79
2019-05-29T11:18:02.637Z,1.79
2019-05-29T11:19:03.033Z,1.37
2019-05-29T11:20:02.514Z,1.56
2019-05-29T11:21:03.222Z,1.49
2019-05-29T11:22:26.436Z,1.58
2019-05-29T11:23:02.869Z,1.39
2019-05-29T11:24:03.141Z,1.59
2019-05-29T11:25:24.943Z,1.34
2019-05-29T11:26:03.416Z,1.89
2019-05-29T11:27:02.956Z,1.45
2019-05-29T11:28:03.785Z,1.45
2019-05-29T11:29:02.803Z,1.61
2019-05-29T11:30:03.215Z,1.88
2019-05-29T11:31:06.520Z,1.68
2019-05-29T11:32:02.890Z,1.86
2019-05-29T11:33:03.296Z,1.99
2019-05-29T11:34:02.964Z,1.62
2019-05-29T11:35:03.145Z,1.78
2019-05-29T11:36:13.491Z,2.04
2019-05-29T11:37:03.028Z,1.99
2019-05-29T11:38:03.101Z,2.07
2019-05-29T11:39:06.331Z,2.06
2019-05-29T11:40:03.473Z,1.97
2019-05-29T11:41:26.519Z,2.08
2019-05-29T11:42:03.287Z,2.11
2019-05-29T11:43:03.382Z,1.9
2019-05-29T11:44:03.476Z,2.08
2019-05-29T11:45:03.945Z,2.09
2019-05-29T11:46:03.236Z,2.36
2019-05-29T11:47:03.106Z,2.31
2019-05-29T11:48:05.449Z,1.92
2019-05-29T11:49:03.793Z,2.02
2019-05-29T11:50:19.994Z,2.01
2019-05-29T11:51:02.879Z,2.51
2019-05-29T11:52:24.909Z,2.36
2019-05-29T11:53:03.588Z,2.23
2019-05-29T11:54:02.885Z,2.42
2019-05-29T11:55:08.407Z,2.14
2019-05-29T11:56:02.828Z,2.58
2019-05-29T11:57:03.437Z,2.71
2019-05-29T11:58:02.784Z,2.75
2019-05-29T11:59:03.284Z,2.74
2019-05-29T12:00:20.019Z,2.66
2019-05-29T12:01:03.218Z,3.12
2019-05-29T12:02:03.603Z,3.47
2019-05-29T12:03:02.480Z,3.47
2019-05-29T12:04:26.068Z,2.71
2019-05-29T12:05:04.290Z,3.18
2019-05-29T12:06:03.414Z,3.24
2019-05-29T12:07:02.477Z,2.79
2019-05-29T12:08:02.469Z,2.79
2019-05-29T12:09:02.627Z,2.56
2019-05-29T12:10:05.737Z,2.56
2019-05-29T12:11:03.192Z,3.4
2019-05-29T12:12:03.049Z,3.19
2019-05-29T12:13:03.453Z,2.89
2019-05-29T12:14:02.671Z,2.93
2019-05-29T12:15:15.469Z,3.44
2019-05-29T12:16:02.647Z,3.71
2019-05-29T12:17:03.088Z,3.46
2019-05-29T12:18:24.110Z,2.95
2019-05-29T12:19:02.644Z,3.32
2019-05-29T12:20:24.179Z,3.72
2019-05-29T12:21:03.311Z,3.1
2019-05-29T12:22:03.166Z,3.77
2019-05-29T12:23:26.967Z,3.5
2019-05-29T12:24:02.796Z,3.58
2019-05-29T12:25:03.432Z,3.39
2019-05-29T12:26:22.546Z,3.72
2019-05-29T12:27:03.459Z,3.35
2019-05-29T12:28:03.668Z,3.57
2019-05-29T12:29:11.991Z,3.51
2019-05-29T12:30:03.409Z,3.43
2019-05-29T12:31:03.615Z,3.25
2019-05-29T12:32:10.630Z,3.38
2019-05-29T12:33:03.377Z,3.85
2019-05-29T12:34:19.017Z,3.56
2019-05-29T12:35:03.487Z,3.82
2019-05-29T12:36:03.464Z,3.32
2019-05-29T12:37:04.008Z,3.09
2019-05-29T12:38:03.645Z,3.45
2019-05-29T12:39:04.308Z,3.15
2019-05-29T12:40:03.877Z,3.58
2019-05-29T12:41:03.973Z,3.14
2019-05-29T12:42:03.922Z,3.75
2019-05-29T12:43:03.896Z,3.82
2019-05-29T12:44:03.764Z,3.32
2019-05-29T12:45:04.437Z,3.77
2019-05-29T12:46:04.217Z,3.55
2019-05-29T12:47:04.527Z,3.55
2019-05-29T12:48:12.845Z,3.56
2019-05-29T12:49:03.870Z,3.4
2019-05-29T12:50:04.499Z,3.59
2019-05-29T12:51:04.355Z,3.09
2019-05-29T12:52:08.840Z,3.76
2019-05-29T12:53:04.052Z,3.45
2019-05-29T12:54:05.336Z,3.39
2019-05-29T12:55:04.334Z,3.87
2019-05-29T12:56:04.756Z,3.64
2019-05-29T12:57:02.557Z,3.68
2019-05-29T12:58:04.551Z,3.68
2019-05-29T12:59:04.810Z,4.29
2019-05-29T13:00:05.755Z,4.29
2019-05-29T13:01:05.071Z,3.95
2019-05-29T13:02:02.853Z,4.71
2019-05-29T13:03:04.769Z,4.71
2019-05-29T13:04:04.876Z,4.48
2019-05-29T13:05:17.777Z,3.86
2019-05-29T13:06:03.090Z,3.86
2019-05-29T13:07:04.758Z,4.31
2019-05-29T13:08:05.049Z,4.11
2019-05-29T13:09:05.143Z,3.91
2019-05-29T13:10:02.937Z,4.16
2019-05-29T13:11:05.039Z,4.76
2019-05-29T13:12:02.766Z,5.19
2019-05-29T13:13:11.141Z,4.34
2019-05-29T13:14:02.832Z,4.79
2019-05-29T13:15:05.698Z,4.69
2019-05-29T13:16:03.352Z,4.54
2019-05-29T13:17:03.209Z,4.92
2019-05-29T13:18:09.867Z,4.76
2019-05-29T13:19:03.900Z,4.8
2019-05-29T13:20:21.883Z,5.11